sensor_id;sensor_type;location;lat;lon;timestamp;pressure;altitude;pressure_sealevel;temperature;humidity
33697;BME280;20031;43.416;23.232;2022-07-23T00:00:13;99940.84;;;23.93;54.43
33697;BME280;20031;43.416;23.232;2022-07-23T00:02:39;99939.47;;;23.91;55.22
33697;BME280;20031;43.416;23.232;2022-07-23T00:05:05;99942.31;;;23.84;56.31
33697;BME280;20031;43.416;23.232;2022-07-23T00:07:30;99940.41;;;23.80;55.95
33697;BME280;20031;43.416;23.232;2022-07-23T00:09:56;99939.28;;;23.76;56.26
33697;BME280;20031;43.416;23.232;2022-07-23T00:12:21;99935.81;;;23.75;55.52
33697;BME280;20031;43.416;23.232;2022-07-23T00:14:47;99942.50;;;23.78;54.07
33697;BME280;20031;43.416;23.232;2022-07-23T00:17:12;99940.16;;;23.81;53.08
33697;BME280;20031;43.416;23.232;2022-07-23T00:19:38;99935.63;;;23.82;52.59
33697;BME280;20031;43.416;23.232;2022-07-23T00:22:03;99933.47;;;23.79;53.00
33697;BME280;20031;43.416;23.232;2022-07-23T00:24:29;99934.50;;;23.78;54.04
33697;BME280;20031;43.416;23.232;2022-07-23T00:26:54;99938.50;;;23.75;55.17
33697;BME280;20031;43.416;23.232;2022-07-23T00:29:20;99938.72;;;23.74;54.99
33697;BME280;20031;43.416;23.232;2022-07-23T00:31:45;99938.16;;;23.72;54.61
33697;BME280;20031;43.416;23.232;2022-07-23T00:34:10;99940.56;;;23.73;55.23
33697;BME280;20031;43.416;23.232;2022-07-23T00:36:36;99936.88;;;23.74;53.84
33697;BME280;20031;43.416;23.232;2022-07-23T00:39:02;99933.47;;;23.79;53.18
33697;BME280;20031;43.416;23.232;2022-07-23T00:41:27;99931.34;;;23.81;52.62
33697;BME280;20031;43.416;23.232;2022-07-23T00:43:53;99935.09;;;23.80;51.85
33697;BME280;20031;43.416;23.232;2022-07-23T00:46:22;99932.84;;;23.72;51.29
33697;BME280;20031;43.416;23.232;2022-07-23T00:48:48;99935.25;;;23.73;50.76
33697;BME280;20031;43.416;23.232;2022-07-23T00:51:17;99933.97;;;23.76;50.73
33697;BME280;20031;43.416;23.232;2022-07-23T00:53:43;99936.06;;;23.74;50.66
33697;BME280;20031;43.416;23.232;2022-07-23T00:56:10;99935.81;;;23.75;50.44
33697;BME280;20031;43.416;23.232;2022-07-23T00:58:36;99936.88;;;23.74;50.67
33697;BME280;20031;43.416;23.232;2022-07-23T01:01:02;99928.25;;;23.67;50.32
33697;BME280;20031;43.416;23.232;2022-07-23T01:03:27;99932.16;;;23.65;51.33
33697;BME280;20031;43.416;23.232;2022-07-23T01:05:53;99932.66;;;23.62;51.84
33697;BME280;20031;43.416;23.232;2022-07-23T01:08:19;99932.91;;;23.60;52.22
33697;BME280;20031;43.416;23.232;2022-07-23T01:10:46;99931.53;;;23.58;52.06
33697;BME280;20031;43.416;23.232;2022-07-23T01:13:13;99940.09;;;23.60;52.20
33697;BME280;20031;43.416;23.232;2022-07-23T01:15:38;99932.84;;;23.56;51.84
33697;BME280;20031;43.416;23.232;2022-07-23T01:18:05;99935.19;;;23.52;51.04
33697;BME280;20031;43.416;23.232;2022-07-23T01:20:31;99941.53;;;23.51;51.33
33697;BME280;20031;43.416;23.232;2022-07-23T01:22:57;99941.00;;;23.49;50.98
33697;BME280;20031;43.416;23.232;2022-07-23T01:25:23;99939.38;;;23.48;51.02
33697;BME280;20031;43.416;23.232;2022-07-23T01:27:50;99943.09;;;23.47;52.99
33697;BME280;20031;43.416;23.232;2022-07-23T01:30:16;99938.81;;;23.46;54.82
33697;BME280;20031;43.416;23.232;2022-07-23T01:32:42;99935.28;;;23.41;55.26
33697;BME280;20031;43.416;23.232;2022-07-23T01:35:08;99940.28;;;23.37;55.57
33697;BME280;20031;43.416;23.232;2022-07-23T01:37:35;99928.19;;;23.30;54.76
33697;BME280;20031;43.416;23.232;2022-07-23T01:40:00;99935.63;;;23.28;54.46
33697;BME280;20031;43.416;23.232;2022-07-23T01:42:26;99932.66;;;23.24;54.20
33697;BME280;20031;43.416;23.232;2022-07-23T01:44:51;99937.88;;;23.19;53.22
33697;BME280;20031;43.416;23.232;2022-07-23T01:47:17;99934.66;;;23.17;52.40
33697;BME280;20031;43.416;23.232;2022-07-23T01:49:42;99931.75;;;23.19;52.21
33697;BME280;20031;43.416;23.232;2022-07-23T01:52:08;99941.66;;;23.23;51.37
33697;BME280;20031;43.416;23.232;2022-07-23T01:54:37;99935.75;;;23.21;51.20
33697;BME280;20031;43.416;23.232;2022-07-23T01:57:04;99939.78;;;23.24;50.35
33697;BME280;20031;43.416;23.232;2022-07-23T01:59:29;99940.88;;;23.23;50.16
33697;BME280;20031;43.416;23.232;2022-07-23T02:01:55;99942.22;;;23.25;49.96
33697;BME280;20031;43.416;23.232;2022-07-23T02:04:22;99945.44;;;23.27;49.89
33697;BME280;20031;43.416;23.232;2022-07-23T02:06:49;99941.19;;;23.26;49.61
33697;BME280;20031;43.416;23.232;2022-07-23T02:09:15;99933.19;;;23.26;49.80
33697;BME280;20031;43.416;23.232;2022-07-23T02:11:41;99935.63;;;23.28;49.34
33697;BME280;20031;43.416;23.232;2022-07-23T02:14:06;99942.56;;;23.29;49.74
33697;BME280;20031;43.416;23.232;2022-07-23T02:16:32;99949.22;;;23.31;49.18
33697;BME280;20031;43.416;23.232;2022-07-23T02:18:58;99946.00;;;23.29;49.60
33697;BME280;20031;43.416;23.232;2022-07-23T02:21:23;99949.16;;;23.26;49.55
33697;BME280;20031;43.416;23.232;2022-07-23T02:23:49;99943.34;;;23.29;49.52
33697;BME280;20031;43.416;23.232;2022-07-23T02:26:14;99950.28;;;23.30;49.66
33697;BME280;20031;43.416;23.232;2022-07-23T02:28:40;99951.88;;;23.31;49.26
33697;BME280;20031;43.416;23.232;2022-07-23T02:31:05;99947.63;;;23.30;49.45
33697;BME280;20031;43.416;23.232;2022-07-23T02:33:32;99955.59;;;23.30;48.88
33697;BME280;20031;43.416;23.232;2022-07-23T02:35:58;99953.50;;;23.32;48.98
33697;BME280;20031;43.416;23.232;2022-07-23T02:38:23;99948.75;;;23.34;48.81
33697;BME280;20031;43.416;23.232;2022-07-23T02:40:48;99956.72;;;23.34;48.73
33697;BME280;20031;43.416;23.232;2022-07-23T02:43:14;99959.94;;;23.36;48.54
33697;BME280;20031;43.416;23.232;2022-07-23T02:45:39;99957.69;;;23.28;49.53
33697;BME280;20031;43.416;23.232;2022-07-23T02:48:05;99960.66;;;22.99;53.70
33697;BME280;20031;43.416;23.232;2022-07-23T02:50:30;99967.91;;;22.76;55.32
33697;BME280;20031;43.416;23.232;2022-07-23T02:52:56;99973.44;;;22.58;55.99
33697;BME280;20031;43.416;23.232;2022-07-23T02:55:21;99971.84;;;22.46;57.25
33697;BME280;20031;43.416;23.232;2022-07-23T02:57:47;99969.78;;;22.36;57.47
33697;BME280;20031;43.416;23.232;2022-07-23T03:00:12;99974.78;;;22.33;58.38
33697;BME280;20031;43.416;23.232;2022-07-23T03:02:38;99981.00;;;22.38;58.69
33697;BME280;20031;43.416;23.232;2022-07-23T03:05:04;99978.66;;;22.42;57.94
33697;BME280;20031;43.416;23.232;2022-07-23T03:07:29;99977.75;;;22.36;58.58
33697;BME280;20031;43.416;23.232;2022-07-23T03:09:55;99977.91;;;22.30;58.60
33697;BME280;20031;43.416;23.232;2022-07-23T03:12:20;99977.91;;;22.30;58.88
33697;BME280;20031;43.416;23.232;2022-07-23T03:14:46;99975.81;;;22.32;58.57
33697;BME280;20031;43.416;23.232;2022-07-23T03:17:11;99973.16;;;22.32;58.80
33697;BME280;20031;43.416;23.232;2022-07-23T03:19:37;99979.13;;;22.39;58.76
33697;BME280;20031;43.416;23.232;2022-07-23T03:22:04;99985.25;;;22.39;58.23
33697;BME280;20031;43.416;23.232;2022-07-23T03:24:29;99983.53;;;22.33;58.75
33697;BME280;20031;43.416;23.232;2022-07-23T03:27:15;99985.28;;;22.28;58.70
33697;BME280;20031;43.416;23.232;2022-07-23T03:29:41;99988.28;;;22.20;59.04
33697;BME280;20031;43.416;23.232;2022-07-23T03:32:06;99987.69;;;22.18;58.85
33697;BME280;20031;43.416;23.232;2022-07-23T03:34:32;99994.06;;;22.17;59.39
33697;BME280;20031;43.416;23.232;2022-07-23T03:36:57;99994.84;;;22.17;59.29
33697;BME280;20031;43.416;23.232;2022-07-23T03:39:23;99994.31;;;22.27;58.88
33697;BME280;20031;43.416;23.232;2022-07-23T03:41:48;99990.13;;;22.42;58.08
33697;BME280;20031;43.416;23.232;2022-07-23T03:44:13;99992.00;;;22.58;55.89
33697;BME280;20031;43.416;23.232;2022-07-23T03:46:39;99993.66;;;22.75;53.80
33697;BME280;20031;43.416;23.232;2022-07-23T03:49:04;99988.84;;;22.89;52.58
33697;BME280;20031;43.416;23.232;2022-07-23T03:51:30;99990.78;;;23.05;51.35
33697;BME280;20031;43.416;23.232;2022-07-23T03:53:55;99998.44;;;23.17;51.04
33697;BME280;20031;43.416;23.232;2022-07-23T03:56:21;99994.66;;;23.30;51.05
33697;BME280;20031;43.416;23.232;2022-07-23T03:58:46;100001.75;;;23.41;50.25
33697;BME280;20031;43.416;23.232;2022-07-23T04:01:12;99997.38;;;23.51;49.43
33697;BME280;20031;43.416;23.232;2022-07-23T04:03:37;99990.06;;;23.58;49.25
33697;BME280;20031;43.416;23.232;2022-07-23T04:06:03;99991.84;;;23.69;49.28
33697;BME280;20031;43.416;23.232;2022-07-23T04:08:29;99992.31;;;23.82;48.94
33697;BME280;20031;43.416;23.232;2022-07-23T04:10:54;99993.63;;;23.80;51.00
33697;BME280;20031;43.416;23.232;2022-07-23T04:13:20;100001.50;;;23.75;52.34
33697;BME280;20031;43.416;23.232;2022-07-23T04:15:45;99997.25;;;23.74;53.09
33697;BME280;20031;43.416;23.232;2022-07-23T04:18:11;99998.84;;;23.75;53.15
33697;BME280;20031;43.416;23.232;2022-07-23T04:20:37;99997.88;;;23.81;53.12
33697;BME280;20031;43.416;23.232;2022-07-23T04:23:02;100006.97;;;24.01;51.95
33697;BME280;20031;43.416;23.232;2022-07-23T04:25:28;99997.44;;;24.05;51.85
33697;BME280;20031;43.416;23.232;2022-07-23T04:27:54;100004.06;;;24.24;50.28
33697;BME280;20031;43.416;23.232;2022-07-23T04:30:19;100000.28;;;24.36;50.65
33697;BME280;20031;43.416;23.232;2022-07-23T04:32:45;100006.13;;;24.60;49.64
33697;BME280;20031;43.416;23.232;2022-07-23T04:35:10;100000.47;;;24.77;47.91
33697;BME280;20031;43.416;23.232;2022-07-23T04:37:36;100003.78;;;24.89;47.38
33697;BME280;20031;43.416;23.232;2022-07-23T04:40:01;100009.53;;;25.03;47.26
33697;BME280;20031;43.416;23.232;2022-07-23T04:42:27;100008.91;;;25.17;46.26
33697;BME280;20031;43.416;23.232;2022-07-23T04:44:52;100004.72;;;25.31;46.22
33697;BME280;20031;43.416;23.232;2022-07-23T04:47:18;100008.59;;;25.45;45.76
33697;BME280;20031;43.416;23.232;2022-07-23T04:49:43;100007.88;;;25.54;46.85
33697;BME280;20031;43.416;23.232;2022-07-23T04:52:09;100014.56;;;25.57;47.17
33697;BME280;20031;43.416;23.232;2022-07-23T04:54:34;100007.94;;;25.64;46.76
33697;BME280;20031;43.416;23.232;2022-07-23T04:56:59;100010.78;;;25.84;45.84
33697;BME280;20031;43.416;23.232;2022-07-23T04:59:25;100011.09;;;25.92;45.50
33697;BME280;20031;43.416;23.232;2022-07-23T05:01:50;100018.91;;;26.04;45.74
33697;BME280;20031;43.416;23.232;2022-07-23T05:04:16;100022.41;;;26.09;45.08
33697;BME280;20031;43.416;23.232;2022-07-23T05:06:41;100022.41;;;26.09;45.80
33697;BME280;20031;43.416;23.232;2022-07-23T05:09:07;100024.25;;;26.04;45.90
33697;BME280;20031;43.416;23.232;2022-07-23T05:11:32;100028.03;;;26.08;46.93
33697;BME280;20031;43.416;23.232;2022-07-23T05:13:58;100023.47;;;26.13;45.89
33697;BME280;20031;43.416;23.232;2022-07-23T05:16:23;100027.88;;;26.29;45.08
33697;BME280;20031;43.416;23.232;2022-07-23T05:18:48;100031.19;;;26.51;44.90
33697;BME280;20031;43.416;23.232;2022-07-23T05:21:14;100026.69;;;26.71;44.80
33697;BME280;20031;43.416;23.232;2022-07-23T05:23:39;100031.03;;;26.82;43.78
33697;BME280;20031;43.416;23.232;2022-07-23T05:26:05;100033.50;;;26.93;44.44
33697;BME280;20031;43.416;23.232;2022-07-23T05:28:30;100036.97;;;26.99;43.61
33697;BME280;20031;43.416;23.232;2022-07-23T05:30:56;100039.66;;;27.04;44.22
33697;BME280;20031;43.416;23.232;2022-07-23T05:33:21;100041.03;;;27.21;43.86
33697;BME280;20031;43.416;23.232;2022-07-23T05:35:47;100039.69;;;27.33;43.71
33697;BME280;20031;43.416;23.232;2022-07-23T05:38:12;100038.09;;;27.32;44.17
33697;BME280;20031;43.416;23.232;2022-07-23T05:40:37;100036.47;;;27.36;44.28
33697;BME280;20031;43.416;23.232;2022-07-23T05:43:03;100030.84;;;27.38;44.50
33697;BME280;20031;43.416;23.232;2022-07-23T05:45:28;100036.50;;;27.51;44.35
33697;BME280;20031;43.416;23.232;2022-07-23T05:47:54;100038.69;;;27.59;44.14
33697;BME280;20031;43.416;23.232;2022-07-23T05:50:19;100036.22;;;27.82;43.97
33697;BME280;20031;43.416;23.232;2022-07-23T05:52:45;100035.13;;;28.03;44.00
33697;BME280;20031;43.416;23.232;2022-07-23T05:55:11;100031.09;;;28.21;43.45
33697;BME280;20031;43.416;23.232;2022-07-23T05:57:37;100035.91;;;28.24;42.95
33697;BME280;20031;43.416;23.232;2022-07-23T06:00:05;100030.47;;;28.38;42.96
33697;BME280;20031;43.416;23.232;2022-07-23T06:02:31;100026.91;;;28.58;43.60
33697;BME280;20031;43.416;23.232;2022-07-23T06:04:57;100026.09;;;28.67;42.97
33697;BME280;20031;43.416;23.232;2022-07-23T06:07:22;100021.78;;;28.66;42.81
33697;BME280;20031;43.416;23.232;2022-07-23T06:09:48;100028.41;;;28.88;43.65
33697;BME280;20031;43.416;23.232;2022-07-23T06:12:17;100025.69;;;28.93;42.90
33697;BME280;20031;43.416;23.232;2022-07-23T06:14:43;100024.91;;;28.88;43.24
33697;BME280;20031;43.416;23.232;2022-07-23T06:17:08;100020.88;;;28.90;42.85
33697;BME280;20031;43.416;23.232;2022-07-23T06:19:34;100017.34;;;28.95;43.16
33697;BME280;20031;43.416;23.232;2022-07-23T06:21:59;100028.72;;;29.20;43.13
33697;BME280;20031;43.416;23.232;2022-07-23T06:24:25;100026.19;;;29.43;43.02
33697;BME280;20031;43.416;23.232;2022-07-23T06:26:50;100023.25;;;29.68;42.41
33697;BME280;20031;43.416;23.232;2022-07-23T06:29:16;100024.88;;;29.69;41.69
33697;BME280;20031;43.416;23.232;2022-07-23T06:31:41;100020.72;;;29.82;41.83
33697;BME280;20031;43.416;23.232;2022-07-23T06:34:07;100016.53;;;29.99;41.27
33697;BME280;20031;43.416;23.232;2022-07-23T06:36:33;100018.25;;;30.13;41.13
33697;BME280;20031;43.416;23.232;2022-07-23T06:38:59;100022.44;;;30.24;40.68
33697;BME280;20031;43.416;23.232;2022-07-23T06:41:24;100017.06;;;30.24;40.50
33697;BME280;20031;43.416;23.232;2022-07-23T06:43:50;100014.03;;;30.54;39.62
33697;BME280;20031;43.416;23.232;2022-07-23T06:46:15;100016.72;;;30.72;38.19
33697;BME280;20031;43.416;23.232;2022-07-23T06:48:41;100014.59;;;30.93;37.57
33697;BME280;20031;43.416;23.232;2022-07-23T06:51:06;100016.69;;;31.14;37.93
33697;BME280;20031;43.416;23.232;2022-07-23T06:53:32;100013.47;;;31.30;37.22
33697;BME280;20031;43.416;23.232;2022-07-23T06:55:57;100015.44;;;31.43;37.50
33697;BME280;20031;43.416;23.232;2022-07-23T06:58:22;100010.28;;;31.60;38.52
33697;BME280;20031;43.416;23.232;2022-07-23T07:00:48;100008.94;;;31.76;40.17
33697;BME280;20031;43.416;23.232;2022-07-23T07:03:14;100013.88;;;31.87;40.06
33697;BME280;20031;43.416;23.232;2022-07-23T07:05:39;100011.53;;;31.94;40.68
33697;BME280;20031;43.416;23.232;2022-07-23T07:08:05;100013.41;;;32.12;40.19
33697;BME280;20031;43.416;23.232;2022-07-23T07:10:31;100012.81;;;32.28;40.19
33697;BME280;20031;43.416;23.232;2022-07-23T07:12:57;100012.63;;;32.52;39.58
33697;BME280;20031;43.416;23.232;2022-07-23T07:15:23;100006.53;;;32.59;38.22
33697;BME280;20031;43.416;23.232;2022-07-23T07:17:48;100012.34;;;32.75;38.51
33697;BME280;20031;43.416;23.232;2022-07-23T07:20:14;100013.44;;;32.87;39.23
33697;BME280;20031;43.416;23.232;2022-07-23T07:22:39;100010.13;;;33.04;37.39
33697;BME280;20031;43.416;23.232;2022-07-23T07:25:06;100014.00;;;33.11;36.88
33697;BME280;20031;43.416;23.232;2022-07-23T07:27:32;100005.97;;;33.19;37.48
33697;BME280;20031;43.416;23.232;2022-07-23T07:29:57;100006.34;;;33.26;36.82
33697;BME280;20031;43.416;23.232;2022-07-23T07:32:23;100003.19;;;33.33;35.77
33697;BME280;20031;43.416;23.232;2022-07-23T07:34:48;100004.31;;;33.32;35.49
33697;BME280;20031;43.416;23.232;2022-07-23T07:37:14;100003.34;;;33.50;35.86
33697;BME280;20031;43.416;23.232;2022-07-23T07:39:39;99996.94;;;33.67;35.29
33697;BME280;20031;43.416;23.232;2022-07-23T07:42:05;100003.38;;;33.80;35.60
33697;BME280;20031;43.416;23.232;2022-07-23T07:44:30;99996.78;;;33.94;34.17
33697;BME280;20031;43.416;23.232;2022-07-23T07:46:56;100007.00;;;34.06;32.72
33697;BME280;20031;43.416;23.232;2022-07-23T07:49:21;100002.75;;;34.13;32.03
33697;BME280;20031;43.416;23.232;2022-07-23T07:51:48;99998.81;;;34.27;33.17
33697;BME280;20031;43.416;23.232;2022-07-23T07:54:13;100004.44;;;34.39;33.06
33697;BME280;20031;43.416;23.232;2022-07-23T07:56:38;99990.13;;;34.47;31.62
33697;BME280;20031;43.416;23.232;2022-07-23T07:59:04;99995.38;;;34.44;31.50
33697;BME280;20031;43.416;23.232;2022-07-23T08:01:30;100003.38;;;34.74;31.16
33697;BME280;20031;43.416;23.232;2022-07-23T08:03:55;99991.91;;;34.77;28.85
33697;BME280;20031;43.416;23.232;2022-07-23T08:06:21;99999.09;;;34.90;28.63
33697;BME280;20031;43.416;23.232;2022-07-23T08:08:46;99994.22;;;35.00;28.42
33697;BME280;20031;43.416;23.232;2022-07-23T08:11:12;99986.53;;;34.94;27.76
33697;BME280;20031;43.416;23.232;2022-07-23T08:13:37;99989.41;;;34.97;28.30
33697;BME280;20031;43.416;23.232;2022-07-23T08:16:03;99992.91;;;35.31;27.29
33697;BME280;20031;43.416;23.232;2022-07-23T08:18:29;99995.13;;;35.46;27.41
33697;BME280;20031;43.416;23.232;2022-07-23T08:20:55;99987.28;;;35.62;27.84
33697;BME280;20031;43.416;23.232;2022-07-23T08:23:20;99985.97;;;35.84;27.83
33697;BME280;20031;43.416;23.232;2022-07-23T08:25:46;99985.47;;;35.91;27.18
33697;BME280;20031;43.416;23.232;2022-07-23T08:28:13;99988.72;;;36.05;27.10
33697;BME280;20031;43.416;23.232;2022-07-23T08:30:41;99981.50;;;36.17;26.43
33697;BME280;20031;43.416;23.232;2022-07-23T08:33:09;99981.72;;;36.41;27.64
33697;BME280;20031;43.416;23.232;2022-07-23T08:35:40;99980.84;;;36.49;27.73
33697;BME280;20031;43.416;23.232;2022-07-23T08:38:08;99981.34;;;36.51;27.41
33697;BME280;20031;43.416;23.232;2022-07-23T08:40:41;99982.06;;;36.60;27.26
33697;BME280;20031;43.416;23.232;2022-07-23T08:43:09;99975.91;;;36.71;27.26
33697;BME280;20031;43.416;23.232;2022-07-23T08:45:37;99975.22;;;36.82;26.94
33697;BME280;20031;43.416;23.232;2022-07-23T08:48:06;99971.59;;;36.70;27.49
33697;BME280;20031;43.416;23.232;2022-07-23T08:50:32;99975.72;;;36.96;26.77
33697;BME280;20031;43.416;23.232;2022-07-23T08:53:00;99970.59;;;37.15;26.98
33697;BME280;20031;43.416;23.232;2022-07-23T08:55:28;99971.38;;;37.24;26.83
33697;BME280;20031;43.416;23.232;2022-07-23T08:57:53;99972.09;;;37.45;26.57
33697;BME280;20031;43.416;23.232;2022-07-23T09:00:20;99970.50;;;37.44;26.27
33697;BME280;20031;43.416;23.232;2022-07-23T09:02:47;99968.75;;;37.28;26.43
33697;BME280;20031;43.416;23.232;2022-07-23T09:05:13;99979.56;;;37.48;27.54
33697;BME280;20031;43.416;23.232;2022-07-23T09:08:08;99972.06;;;37.77;26.20
33697;BME280;20031;43.416;23.232;2022-07-23T09:18:41;99962.91;;;38.53;26.86
33697;BME280;20031;43.416;23.232;2022-07-23T09:21:11;99955.75;;;38.60;26.47
33697;BME280;20031;43.416;23.232;2022-07-23T09:23:41;99959.25;;;38.61;26.90
33697;BME280;20031;43.416;23.232;2022-07-23T09:28:55;99953.47;;;38.62;25.66
33697;BME280;20031;43.416;23.232;2022-07-23T09:31:22;99956.69;;;38.80;25.60
33697;BME280;20031;43.416;23.232;2022-07-23T09:33:48;99956.00;;;38.94;23.75
33697;BME280;20031;43.416;23.232;2022-07-23T09:36:14;99944.41;;;38.97;24.30
33697;BME280;20031;43.416;23.232;2022-07-23T09:38:50;99948.59;;;39.22;23.67
33697;BME280;20031;43.416;23.232;2022-07-23T09:41:16;99949.94;;;39.28;23.19
33697;BME280;20031;43.416;23.232;2022-07-23T09:43:42;99948.06;;;39.44;23.05
33697;BME280;20031;43.416;23.232;2022-07-23T09:46:27;99940.69;;;39.60;22.65
33697;BME280;20031;43.416;23.232;2022-07-23T09:48:54;99940.16;;;39.70;22.73
33697;BME280;20031;43.416;23.232;2022-07-23T09:51:22;99936.38;;;39.74;22.27
33697;BME280;20031;43.416;23.232;2022-07-23T09:53:53;99935.97;;;39.88;22.03
33697;BME280;20031;43.416;23.232;2022-07-23T09:56:20;99929.31;;;39.73;21.95
33697;BME280;20031;43.416;23.232;2022-07-23T09:58:49;99934.94;;;39.65;22.52
33697;BME280;20031;43.416;23.232;2022-07-23T10:01:16;99928.38;;;39.81;22.53
33697;BME280;20031;43.416;23.232;2022-07-23T10:03:42;99922.09;;;39.96;23.02
33697;BME280;20031;43.416;23.232;2022-07-23T10:06:13;99921.56;;;40.21;22.82
33697;BME280;20031;43.416;23.232;2022-07-23T10:08:42;99930.56;;;40.06;21.84
33697;BME280;20031;43.416;23.232;2022-07-23T10:11:10;99921.53;;;40.37;22.23
33697;BME280;20031;43.416;23.232;2022-07-23T10:13:39;99924.00;;;40.42;21.82
33697;BME280;20031;43.416;23.232;2022-07-23T10:16:25;99919.31;;;40.42;22.96
33697;BME280;20031;43.416;23.232;2022-07-23T10:18:51;99915.28;;;40.55;21.99
33697;BME280;20031;43.416;23.232;2022-07-23T10:21:24;99915.69;;;40.38;21.96
33697;BME280;20031;43.416;23.232;2022-07-23T10:30:00;99905.09;;;40.71;22.07
33697;BME280;20031;43.416;23.232;2022-07-23T10:35:37;99895.09;;;40.97;22.36
33697;BME280;20031;43.416;23.232;2022-07-23T10:38:54;99898.63;;;40.98;21.30
33697;BME280;20031;43.416;23.232;2022-07-23T10:41:01;99884.81;;;41.09;21.98
33697;BME280;20031;43.416;23.232;2022-07-23T10:43:28;99888.81;;;41.15;21.59
33697;BME280;20031;43.416;23.232;2022-07-23T10:45:54;99887.75;;;40.82;21.46
33697;BME280;20031;43.416;23.232;2022-07-23T10:48:26;99883.81;;;40.80;22.31
33697;BME280;20031;43.416;23.232;2022-07-23T10:59:20;99878.38;;;41.21;21.79
33697;BME280;20031;43.416;23.232;2022-07-23T11:01:46;99870.91;;;41.18;21.36
33697;BME280;20031;43.416;23.232;2022-07-23T11:04:11;99868.25;;;41.44;21.46
33697;BME280;20031;43.416;23.232;2022-07-23T11:09:38;99867.91;;;41.26;21.15
33697;BME280;20031;43.416;23.232;2022-07-23T11:17:23;99852.19;;;41.42;21.11
33697;BME280;20031;43.416;23.232;2022-07-23T11:22:40;99855.47;;;41.77;21.13
33697;BME280;20031;43.416;23.232;2022-07-23T11:25:28;99849.59;;;42.01;21.85
33697;BME280;20031;43.416;23.232;2022-07-23T11:27:54;99841.75;;;41.99;20.39
33697;BME280;20031;43.416;23.232;2022-07-23T11:32:52;99835.66;;;41.83;20.72
33697;BME280;20031;43.416;23.232;2022-07-23T11:35:26;99833.16;;;41.75;20.44
33697;BME280;20031;43.416;23.232;2022-07-23T11:37:54;99825.88;;;41.82;20.18
33697;BME280;20031;43.416;23.232;2022-07-23T11:40:24;99830.22;;;41.87;20.28
33697;BME280;20031;43.416;23.232;2022-07-23T11:42:58;99832.44;;;42.04;20.01
33697;BME280;20031;43.416;23.232;2022-07-23T11:45:29;99825.22;;;42.18;19.89
33697;BME280;20031;43.416;23.232;2022-07-23T11:47:55;99821.19;;;42.12;19.71
33697;BME280;20031;43.416;23.232;2022-07-23T11:50:23;99828.25;;;42.13;20.16
33697;BME280;20031;43.416;23.232;2022-07-23T11:52:50;99822.53;;;42.21;19.75
33697;BME280;20031;43.416;23.232;2022-07-23T11:55:16;99822.53;;;42.21;20.27
33697;BME280;20031;43.416;23.232;2022-07-23T11:57:43;99823.31;;;42.22;19.44
33697;BME280;20031;43.416;23.232;2022-07-23T12:00:11;99816.22;;;42.17;19.45
33697;BME280;20031;43.416;23.232;2022-07-23T12:02:41;99816.75;;;42.01;19.67
33697;BME280;20031;43.416;23.232;2022-07-23T12:05:08;99814.84;;;42.34;20.10
33697;BME280;20031;43.416;23.232;2022-07-23T12:07:41;99814.81;;;42.30;19.45
33697;BME280;20031;43.416;23.232;2022-07-23T12:10:12;99814.06;;;42.33;19.43
33697;BME280;20031;43.416;23.232;2022-07-23T12:12:56;99809.72;;;42.32;18.57
33697;BME280;20031;43.416;23.232;2022-07-23T12:15:25;99809.56;;;42.18;19.22
33697;BME280;20031;43.416;23.232;2022-07-23T12:17:52;99803.28;;;42.51;19.26
33697;BME280;20031;43.416;23.232;2022-07-23T12:20:33;99819.34;;;42.81;19.90
33697;BME280;20031;43.416;23.232;2022-07-23T12:23:03;99807.03;;;43.01;19.34
33697;BME280;20031;43.416;23.232;2022-07-23T12:25:31;99805.09;;;42.69;18.98
33697;BME280;20031;43.416;23.232;2022-07-23T12:28:04;99802.56;;;42.90;19.50
33697;BME280;20031;43.416;23.232;2022-07-23T12:30:33;99797.78;;;43.19;19.04
33697;BME280;20031;43.416;23.232;2022-07-23T12:33:00;99797.41;;;43.24;19.17
33697;BME280;20031;43.416;23.232;2022-07-23T12:35:42;99799.72;;;43.19;18.92
33697;BME280;20031;43.416;23.232;2022-07-23T12:38:12;99788.72;;;43.15;19.05
33697;BME280;20031;43.416;23.232;2022-07-23T12:43:11;99785.53;;;43.07;18.44
33697;BME280;20031;43.416;23.232;2022-07-23T12:53:12;99768.50;;;43.34;19.22
33697;BME280;20031;43.416;23.232;2022-07-23T12:55:39;99773.63;;;43.35;18.92
33697;BME280;20031;43.416;23.232;2022-07-23T12:58:12;99767.38;;;43.38;19.16
33697;BME280;20031;43.416;23.232;2022-07-23T13:00:55;99766.38;;;43.13;19.03
33697;BME280;20031;43.416;23.232;2022-07-23T13:05:48;99758.53;;;43.12;19.00
33697;BME280;20031;43.416;23.232;2022-07-23T13:08:14;99757.69;;;43.08;18.89
33697;BME280;20031;43.416;23.232;2022-07-23T13:10:39;99750.03;;;42.88;18.32
33697;BME280;20031;43.416;23.232;2022-07-23T13:13:09;99753.03;;;42.72;18.61
33697;BME280;20031;43.416;23.232;2022-07-23T13:15:35;99752.16;;;42.65;18.95
33697;BME280;20031;43.416;23.232;2022-07-23T13:18:01;99752.75;;;42.84;19.34
33697;BME280;20031;43.416;23.232;2022-07-23T13:20:26;99746.56;;;42.91;19.29
33697;BME280;20031;43.416;23.232;2022-07-23T13:22:51;99737.28;;;43.06;19.08
33697;BME280;20031;43.416;23.232;2022-07-23T13:25:17;99738.00;;;42.96;19.12
33697;BME280;20031;43.416;23.232;2022-07-23T13:27:42;99742.22;;;42.90;19.30
33697;BME280;20031;43.416;23.232;2022-07-23T13:30:08;99736.50;;;43.05;18.85
33697;BME280;20031;43.416;23.232;2022-07-23T13:32:36;99728.75;;;43.17;19.12
33697;BME280;20031;43.416;23.232;2022-07-23T13:35:02;99724.22;;;43.35;18.89
33697;BME280;20031;43.416;23.232;2022-07-23T13:37:28;99728.66;;;43.57;19.04
33697;BME280;20031;43.416;23.232;2022-07-23T13:39:53;99722.03;;;43.68;18.96